Time;durP1;ratioP1;P1;durP2;ratioP2;P2;SDS_P1;SDS_P2;PMS_P1;PMS_P2;Temp;Humidity;BMP_temperature;BMP_pressure;BME280_temperature;BME280_humidity;BME280_pressure;Samples;Min_cycle;Max_cycle;Signal;HPM_P1;HPM_P2
2023/04/06 00:00:52;;;;;;;8.70;4.82;;;;;;;;;;5081335;28;20135;-69
2023/04/06 00:03:20;;;;;;;7.70;4.40;;;;;;;;;;5085525;28;20060;-69
2023/04/06 00:05:48;;;;;;;7.88;4.25;;;;;;;;;;5084583;28;20059;-69
2023/04/06 00:08:15;;;;;;;7.90;4.63;;;;;;;;;;5086072;28;20072;-69
2023/04/06 00:10:43;;;;;;;8.15;4.40;;;;;;;;;;5081902;28;20050;-69
2023/04/06 00:13:11;;;;;;;9.63;4.38;;;;;;;;;;5085480;28;20530;-69
2023/04/06 00:15:39;;;;;;;7.80;4.43;;;;;;;;;;5081226;28;20127;-69
2023/04/06 00:18:06;;;;;;;8.50;4.43;;;;;;;;;;5081325;28;20051;-69
2023/04/06 00:20:34;;;;;;;6.60;3.95;;;;;;;;;;5083456;28;20040;-69
2023/04/06 00:23:01;;;;;;;7.60;4.25;;;;;;;;;;5072591;28;20372;-69
2023/04/06 00:25:28;;;;;;;8.30;4.30;;;;;;;;;;5082786;28;20044;-69
2023/04/06 00:27:56;;;;;;;7.18;4.30;;;;;;;;;;5080895;28;20521;-69
2023/04/06 00:30:25;;;;;;;8.27;3.92;;;;;;;;;;5061045;28;20057;-69
2023/04/06 00:32:52;;;;;;;9.48;4.32;;;;;;;;;;5079028;28;20126;-69
2023/04/06 00:35:19;;;;;;;7.53;3.95;;;;;;;;;;5063347;28;20071;-69
2023/04/06 00:37:48;;;;;;;9.73;4.32;;;;;;;;;;5083550;28;20036;-69
2023/04/06 00:40:15;;;;;;;8.93;4.20;;;;;;;;;;5081712;28;20070;-69
2023/04/06 00:42:42;;;;;;;8.50;3.92;;;;;;;;;;5079882;28;20052;-69
2023/04/06 00:45:11;;;;;;;7.75;4.45;;;;;;;;;;5077548;28;20048;-69
2023/04/06 00:47:39;;;;;;;7.35;4.05;;;;;;;;;;5070531;28;20055;-69
2023/04/06 00:50:07;;;;;;;9.63;4.38;;;;;;;;;;5085353;28;20048;-69
2023/04/06 00:52:35;;;;;;;7.43;4.00;;;;;;;;;;5089246;28;20048;-69
2023/04/06 00:55:02;;;;;;;9.13;4.68;;;;;;;;;;5084873;28;20155;-69
2023/04/06 00:57:30;;;;;;;6.03;3.58;;;;;;;;;;5088603;28;20471;-69
2023/04/06 00:59:57;;;;;;;9.02;4.20;;;;;;;;;;5083512;28;20044;-69
2023/04/06 01:02:25;;;;;;;7.25;4.13;;;;;;;;;;5089076;28;20058;-69
2023/04/06 01:04:55;;;;;;;8.65;4.47;;;;;;;;;;5079418;28;20044;-69
2023/04/06 01:07:22;;;;;;;7.90;4.93;;;;;;;;;;5087899;28;20040;-69
2023/04/06 01:09:49;;;;;;;7.20;4.03;;;;;;;;;;5084852;28;20045;-69
2023/04/06 01:12:17;;;;;;;5.22;3.70;;;;;;;;;;5087078;28;20044;-69
2023/04/06 01:14:44;;;;;;;10.70;4.32;;;;;;;;;;5087119;28;20052;-69
2023/04/06 01:17:12;;;;;;;9.40;4.70;;;;;;;;;;5083608;28;20056;-69
2023/04/06 01:19:40;;;;;;;9.13;4.70;;;;;;;;;;5086124;28;20509;-70
2023/04/06 01:22:09;;;;;;;7.07;4.32;;;;;;;;;;5078136;28;20048;-69
2023/04/06 01:24:37;;;;;;;9.02;4.10;;;;;;;;;;5085853;28;20045;-69
2023/04/06 01:27:05;;;;;;;5.60;3.80;;;;;;;;;;5089621;28;20131;-69
2023/04/06 01:29:32;;;;;;;7.18;4.32;;;;;;;;;;5090317;28;20055;-69
2023/04/06 01:31:59;;;;;;;8.10;4.55;;;;;;;;;;5083759;28;20051;-69
2023/04/06 01:34:27;;;;;;;10.40;6.70;;;;;;;;;;5085981;28;20043;-69
2023/04/06 01:36:54;;;;;;;9.00;3.80;;;;;;;;;;5081304;28;20052;-69
2023/04/06 01:39:22;;;;;;;6.95;4.28;;;;;;;;;;5065464;28;20118;-69
2023/04/06 01:41:50;;;;;;;7.75;4.25;;;;;;;;;;5078886;28;20087;-69
2023/04/06 01:44:18;;;;;;;6.70;4.20;;;;;;;;;;5082742;28;20512;-69
2023/04/06 01:46:46;;;;;;;8.73;4.47;;;;;;;;;;5083277;28;20040;-69
2023/04/06 01:49:14;;;;;;;13.80;4.78;;;;;;;;;;5083524;28;20063;-69
2023/04/06 01:51:41;;;;;;;7.43;4.38;;;;;;;;;;5064936;28;20139;-69
2023/04/06 01:54:08;;;;;;;6.97;4.47;;;;;;;;;;5078277;28;20067;-69
2023/04/06 01:56:35;;;;;;;10.52;4.60;;;;;;;;;;5087946;28;20052;-69
2023/04/06 01:59:04;;;;;;;8.27;4.63;;;;;;;;;;5080021;28;20052;-69
2023/04/06 02:01:31;;;;;;;9.05;4.50;;;;;;;;;;5088727;28;20055;-69
2023/04/06 02:03:59;;;;;;;7.60;4.13;;;;;;;;;;5063931;28;20353;-69
2023/04/06 02:06:26;;;;;;;8.27;4.43;;;;;;;;;;5088941;28;20055;-69
2023/04/06 02:08:54;;;;;;;8.90;4.80;;;;;;;;;;5082904;28;20071;-69
2023/04/06 02:11:21;;;;;;;9.02;4.90;;;;;;;;;;5063504;28;20048;-69
2023/04/06 02:13:48;;;;;;;8.05;4.70;;;;;;;;;;5089250;28;20047;-69
2023/04/06 02:16:17;;;;;;;10.30;4.75;;;;;;;;;;5080176;28;20380;-69
2023/04/06 02:18:45;;;;;;;7.32;5.00;;;;;;;;;;5085339;28;20048;-69
2023/04/06 02:21:12;;;;;;;10.27;4.78;;;;;;;;;;5088333;28;20071;-69
2023/04/06 02:23:39;;;;;;;7.78;4.70;;;;;;;;;;5064772;28;20048;-69
2023/04/06 02:26:07;;;;;;;8.30;4.82;;;;;;;;;;5084647;28;20407;-69
2023/04/06 02:28:34;;;;;;;9.02;4.97;;;;;;;;;;5088995;28;20487;-69
2023/04/06 02:31:01;;;;;;;7.47;4.45;;;;;;;;;;5086132;28;20135;-69
2023/04/06 02:33:30;;;;;;;9.27;4.93;;;;;;;;;;5069404;28;20056;-68
2023/04/06 02:35:57;;;;;;;7.22;4.70;;;;;;;;;;5087791;28;20514;-69
2023/04/06 02:38:24;;;;;;;8.73;4.82;;;;;;;;;;5077588;28;20428;-69
2023/04/06 02:40:52;;;;;;;7.40;4.53;;;;;;;;;;5083056;28;20043;-68
2023/04/06 02:43:19;;;;;;;6.78;4.30;;;;;;;;;;5086400;28;20109;-69
2023/04/06 02:45:46;;;;;;;7.32;4.35;;;;;;;;;;5087837;28;20084;-69
2023/04/06 02:48:14;;;;;;;9.48;4.53;;;;;;;;;;5085925;28;20044;-69
2023/04/06 02:50:43;;;;;;;9.25;5.15;;;;;;;;;;5066303;28;20139;-69
2023/04/06 02:53:10;;;;;;;7.07;4.57;;;;;;;;;;5082019;28;20051;-69
2023/04/06 02:55:37;;;;;;;7.47;4.82;;;;;;;;;;5088659;28;20078;-69
2023/04/06 02:58:05;;;;;;;7.68;4.32;;;;;;;;;;5086504;28;20154;-69
2023/04/06 03:00:32;;;;;;;8.20;4.25;;;;;;;;;;5086751;28;20039;-69
2023/04/06 03:03:00;;;;;;;8.80;5.07;;;;;;;;;;5085904;28;20538;-69
2023/04/06 03:05:27;;;;;;;10.43;4.90;;;;;;;;;;5085297;28;20440;-69
2023/04/06 03:07:56;;;;;;;10.52;4.80;;;;;;;;;;5088114;28;20455;-69
2023/04/06 03:10:23;;;;;;;7.05;4.30;;;;;;;;;;5064183;28;20044;-69
2023/04/06 03:12:50;;;;;;;12.18;5.45;;;;;;;;;;5083375;28;20062;-69
2023/04/06 03:15:17;;;;;;;7.00;4.00;;;;;;;;;;5075859;28;20048;-69
2023/04/06 03:17:45;;;;;;;10.63;4.78;;;;;;;;;;5062099;28;20127;-69
2023/04/06 03:20:12;;;;;;;8.60;4.93;;;;;;;;;;5081327;28;20525;-69
2023/04/06 03:22:40;;;;;;;7.63;4.53;;;;;;;;;;5083862;28;20418;-69
2023/04/06 03:25:09;;;;;;;10.07;5.10;;;;;;;;;;5080401;28;20044;-69
2023/04/06 03:27:36;;;;;;;7.50;4.45;;;;;;;;;;5083286;28;20459;-69
2023/04/06 03:30:04;;;;;;;9.60;5.28;;;;;;;;;;5061542;28;20068;-69
2023/04/06 03:32:31;;;;;;;9.80;4.53;;;;;;;;;;5060213;28;20093;-69
2023/04/06 03:34:58;;;;;;;8.15;4.85;;;;;;;;;;5079121;28;20083;-69
2023/04/06 03:37:26;;;;;;;9.63;4.82;;;;;;;;;;5083479;28;20487;-69
2023/04/06 03:39:53;;;;;;;9.15;4.65;;;;;;;;;;5080098;28;20500;-69
2023/04/06 03:42:22;;;;;;;7.32;4.55;;;;;;;;;;5081374;28;20070;-69
2023/04/06 03:44:49;;;;;;;7.93;4.82;;;;;;;;;;5088064;28;20039;-69
2023/04/06 03:47:17;;;;;;;8.20;4.75;;;;;;;;;;5088160;28;20056;-69
2023/04/06 03:49:44;;;;;;;9.75;5.13;;;;;;;;;;5084765;28;20467;-69
2023/04/06 03:52:11;;;;;;;8.57;4.90;;;;;;;;;;5067528;28;20056;-69
2023/04/06 03:54:38;;;;;;;9.90;4.80;;;;;;;;;;5086945;28;20044;-69
2023/04/06 03:57:06;;;;;;;10.57;5.75;;;;;;;;;;5075413;28;20872;-69
2023/04/06 03:59:35;;;;;;;9.60;5.05;;;;;;;;;;5084783;28;20514;-69
2023/04/06 04:02:02;;;;;;;9.10;4.80;;;;;;;;;;5084211;28;20873;-69
2023/04/06 04:04:29;;;;;;;7.30;4.68;;;;;;;;;;5062321;28;20075;-69
2023/04/06 04:06:56;;;;;;;12.05;5.15;;;;;;;;;;5085573;28;20509;-69
2023/04/06 04:09:24;;;;;;;10.57;5.57;;;;;;;;;;5086217;28;20499;-69
2023/04/06 04:11:51;;;;;;;9.40;5.00;;;;;;;;;;5085504;28;20050;-69
2023/04/06 04:14:18;;;;;;;9.00;5.13;;;;;;;;;;5087049;28;20127;-69
2023/04/06 04:16:47;;;;;;;9.32;5.53;;;;;;;;;;5086338;28;20098;-69
2023/04/06 04:19:14;;;;;;;8.77;5.75;;;;;;;;;;5066408;28;20058;-69
2023/04/06 04:21:45;;;;;;;10.65;5.35;;;;;;;;;;5061405;28;20139;-69
2023/04/06 04:24:13;;;;;;;11.77;5.43;;;;;;;;;;5081665;28;20056;-69
2023/04/06 04:26:40;;;;;;;12.63;5.30;;;;;;;;;;5082857;28;20079;-69
2023/04/06 04:29:08;;;;;;;9.00;5.45;;;;;;;;;;5072696;28;20321;-69
2023/04/06 04:31:35;;;;;;;7.97;5.43;;;;;;;;;;5088260;28;20539;-68
2023/04/06 04:34:06;;;;;;;11.13;5.75;;;;;;;;;;5088139;28;20079;-69
2023/04/06 04:36:33;;;;;;;8.95;5.70;;;;;;;;;;5074588;28;20054;-68
2023/04/06 04:39:02;;;;;;;8.30;5.40;;;;;;;;;;5087368;28;20044;-69
2023/04/06 04:41:29;;;;;;;10.20;5.50;;;;;;;;;;5088565;28;20059;-69
2023/04/06 04:43:56;;;;;;;9.73;5.68;;;;;;;;;;5090027;28;20055;-70
2023/04/06 04:46:23;;;;;;;11.63;5.43;;;;;;;;;;5088860;28;20518;-69
2023/04/06 04:48:51;;;;;;;9.57;6.00;;;;;;;;;;5089761;28;20483;-69
2023/04/06 04:51:20;;;;;;;10.30;6.07;;;;;;;;;;5085244;28;20052;-69
2023/04/06 04:53:47;;;;;;;11.93;7.43;;;;;;;;;;5084661;28;20044;-69
2023/04/06 04:56:15;;;;;;;9.75;6.80;;;;;;;;;;5090121;28;20048;-69
2023/04/06 04:58:42;;;;;;;11.30;6.55;;;;;;;;;;5071110;28;20051;-69
2023/04/06 05:01:09;;;;;;;9.35;5.72;;;;;;;;;;5089583;28;20119;-69
2023/04/06 05:03:39;;;;;;;8.07;5.63;;;;;;;;;;5067576;28;20424;-69
2023/04/06 05:06:06;;;;;;;12.38;6.07;;;;;;;;;;5090293;28;20051;-69
2023/04/06 05:08:35;;;;;;;10.32;6.10;;;;;;;;;;5086038;28;20049;-69
2023/04/06 05:11:02;;;;;;;9.60;6.25;;;;;;;;;;5090155;28;20059;-69
2023/04/06 05:13:31;;;;;;;9.27;6.00;;;;;;;;;;5088467;28;20483;-68
2023/04/06 05:15:58;;;;;;;10.43;6.13;;;;;;;;;;5090720;28;20054;-69
2023/04/06 05:18:26;;;;;;;11.50;6.43;;;;;;;;;;5089661;28;20123;-69
2023/04/06 05:20:53;;;;;;;11.02;6.38;;;;;;;;;;5081298;28;20135;-70
2023/04/06 05:23:20;;;;;;;10.32;6.10;;;;;;;;;;5065980;28;20079;-69
2023/04/06 05:25:49;;;;;;;9.15;6.30;;;;;;;;;;5085102;28;20044;-69
2023/04/06 05:28:16;;;;;;;12.65;6.75;;;;;;;;;;5088944;28;20495;-69
2023/04/06 05:30:44;;;;;;;12.10;6.50;;;;;;;;;;5086243;28;20040;-69
2023/04/06 05:33:11;;;;;;;15.48;6.43;;;;;;;;;;5089291;28;20083;-68
2023/04/06 05:35:38;;;;;;;9.90;5.95;;;;;;;;;;5086463;28;20509;-69
2023/04/06 05:38:07;;;;;;;10.07;6.05;;;;;;;;;;5088121;28;20058;-69
2023/04/06 05:40:34;;;;;;;11.48;6.70;;;;;;;;;;5089316;28;20056;-69
2023/04/06 05:43:03;;;;;;;12.75;6.65;;;;;;;;;;5083975;28;20110;-69
2023/04/06 05:45:31;;;;;;;10.55;5.82;;;;;;;;;;5087569;28;20044;-69
2023/04/06 05:47:59;;;;;;;10.23;6.07;;;;;;;;;;5089372;28;20606;-69
2023/04/06 05:50:26;;;;;;;13.40;6.72;;;;;;;;;;5068643;28;20089;-69
2023/04/06 05:52:53;;;;;;;11.32;5.90;;;;;;;;;;5090479;28;20535;-69
2023/04/06 05:55:21;;;;;;;11.15;6.70;;;;;;;;;;5089559;28;20040;-69
2023/04/06 05:57:48;;;;;;;12.73;6.18;;;;;;;;;;5066218;28;20051;-69
2023/04/06 06:00:17;;;;;;;11.57;6.50;;;;;;;;;;5086932;28;20822;-69
2023/04/06 06:02:45;;;;;;;10.45;6.60;;;;;;;;;;5088319;28;20048;-69
2023/04/06 06:05:12;;;;;;;14.75;6.63;;;;;;;;;;5087369;28;20055;-69
2023/04/06 06:07:39;;;;;;;13.38;7.20;;;;;;;;;;5089760;28;20048;-69
2023/04/06 06:10:07;;;;;;;10.90;6.93;;;;;;;;;;5085040;28;20122;-69
2023/04/06 06:12:35;;;;;;;12.95;7.03;;;;;;;;;;5089118;28;20165;-69
2023/04/06 06:15:02;;;;;;;11.20;6.38;;;;;;;;;;5087682;28;20044;-69
2023/04/06 06:17:30;;;;;;;11.77;6.45;;;;;;;;;;5087373;28;20044;-69
2023/04/06 06:19:58;;;;;;;12.25;7.03;;;;;;;;;;5079470;28;20052;-69
2023/04/06 06:22:25;;;;;;;12.93;6.68;;;;;;;;;;5087247;28;20155;-69
2023/04/06 06:24:52;;;;;;;12.10;6.63;;;;;;;;;;5066552;28;20487;-69
2023/04/06 06:27:20;;;;;;;10.07;6.40;;;;;;;;;;5087733;28;20052;-69
2023/04/06 06:29:47;;;;;;;11.40;6.95;;;;;;;;;;5065835;28;20052;-69
2023/04/06 06:32:14;;;;;;;12.90;7.00;;;;;;;;;;5086486;28;20506;-69
2023/04/06 06:34:43;;;;;;;12.93;6.65;;;;;;;;;;5086972;28;20052;-69
2023/04/06 06:37:10;;;;;;;11.13;7.22;;;;;;;;;;5079352;28;20123;-69
2023/04/06 06:39:38;;;;;;;16.77;7.53;;;;;;;;;;5083225;28;20498;-69
2023/04/06 06:42:05;;;;;;;11.98;7.20;;;;;;;;;;5085812;28;20051;-69
2023/04/06 06:44:32;;;;;;;16.35;7.30;;;;;;;;;;5062840;28;20067;-69
2023/04/06 06:47:00;;;;;;;16.10;7.70;;;;;;;;;;5085296;28;20138;-69
2023/04/06 06:49:27;;;;;;;11.50;7.80;;;;;;;;;;5084300;28;20506;-69
2023/04/06 06:51:56;;;;;;;18.30;8.23;;;;;;;;;;5083774;28;20055;-69
2023/04/06 06:54:23;;;;;;;18.30;8.07;;;;;;;;;;5066398;28;20055;-69
2023/04/06 06:57:01;;;;;;;13.77;7.30;;;;;;;;;;5080823;28;20048;-69
2023/04/06 06:59:28;;;;;;;14.38;7.75;;;;;;;;;;5082741;28;20044;-69
2023/04/06 07:01:56;;;;;;;14.18;7.68;;;;;;;;;;5085369;28;20044;-69
2023/04/06 07:04:23;;;;;;;13.15;7.65;;;;;;;;;;5082276;28;20043;-69
2023/04/06 07:06:53;;;;;;;15.48;7.72;;;;;;;;;;5086276;28;20085;-69
2023/04/06 07:09:22;;;;;;;13.63;7.57;;;;;;;;;;5082126;28;20101;-69
2023/04/06 07:11:49;;;;;;;13.98;7.32;;;;;;;;;;5078848;28;20040;-69
2023/04/06 07:14:17;;;;;;;14.02;6.68;;;;;;;;;;5085155;28;20525;-69
2023/04/06 07:16:46;;;;;;;14.60;6.82;;;;;;;;;;5077751;28;20056;-69
2023/04/06 07:19:13;;;;;;;11.95;6.60;;;;;;;;;;5080386;28;20223;-69
2023/04/06 07:21:41;;;;;;;13.85;6.70;;;;;;;;;;5064149;28;20052;-69
2023/04/06 07:24:08;;;;;;;16.10;6.65;;;;;;;;;;5079055;28;20133;-69
2023/04/06 07:26:37;;;;;;;11.68;6.65;;;;;;;;;;5078100;28;20051;-69
2023/04/06 07:29:04;;;;;;;11.85;6.40;;;;;;;;;;5078559;28;20048;-69
2023/04/06 07:31:31;;;;;;;15.30;7.43;;;;;;;;;;5083748;28;20044;-69
2023/04/06 07:33:59;;;;;;;14.43;7.50;;;;;;;;;;5084336;28;20044;-70
2023/04/06 07:36:26;;;;;;;15.68;7.57;;;;;;;;;;5085780;28;20044;-70
2023/04/06 07:38:54;;;;;;;13.60;6.65;;;;;;;;;;5085190;28;20517;-69
2023/04/06 07:41:21;;;;;;;13.55;6.53;;;;;;;;;;5084285;28;20690;-69
2023/04/06 07:43:50;;;;;;;14.02;7.15;;;;;;;;;;5082481;28;20121;-69
2023/04/06 07:46:17;;;;;;;11.30;6.47;;;;;;;;;;5071054;28;20041;-69
2023/04/06 07:48:45;;;;;;;11.88;6.80;;;;;;;;;;5082971;28;20109;-69
2023/04/06 07:51:14;;;;;;;13.95;6.38;;;;;;;;;;5078664;28;20040;-69
2023/04/06 07:53:41;;;;;;;11.02;6.38;;;;;;;;;;5064190;28;20059;-69
2023/04/06 07:56:08;;;;;;;11.25;6.18;;;;;;;;;;5076544;28;20045;-69
2023/04/06 07:58:36;;;;;;;11.32;6.45;;;;;;;;;;5079536;28;20039;-69
2023/04/06 08:01:05;;;;;;;11.10;6.05;;;;;;;;;;5083135;28;20040;-70
2023/04/06 08:03:34;;;;;;;13.77;6.25;;;;;;;;;;5083858;28;20058;-69
2023/04/06 08:06:02;;;;;;;13.65;6.82;;;;;;;;;;5084128;28;20063;-70
2023/04/06 08:08:30;;;;;;;10.73;6.50;;;;;;;;;;5067650;28;20048;-70
2023/04/06 08:10:57;;;;;;;13.80;6.85;;;;;;;;;;5084604;28;20498;-69
2023/04/06 08:13:25;;;;;;;13.43;7.10;;;;;;;;;;5063015;28;20062;-69
2023/04/06 08:15:53;;;;;;;14.40;6.80;;;;;;;;;;5085825;28;20484;-69
2023/04/06 08:18:22;;;;;;;14.02;6.75;;;;;;;;;;5082990;28;20053;-69
2023/04/06 08:20:49;;;;;;;11.50;6.70;;;;;;;;;;5084517;28;20083;-69
2023/04/06 08:23:17;;;;;;;11.32;7.03;;;;;;;;;;5086023;28;20140;-69
2023/04/06 08:25:45;;;;;;;13.35;7.97;;;;;;;;;;5080136;28;20048;-69
2023/04/06 08:28:12;;;;;;;13.93;6.80;;;;;;;;;;5084174;28;20051;-69
2023/04/06 08:30:41;;;;;;;13.70;7.57;;;;;;;;;;5075910;28;20052;-69
2023/04/06 08:33:08;;;;;;;14.52;7.43;;;;;;;;;;5083325;28;20475;-69
2023/04/06 08:35:37;;;;;;;12.98;7.78;;;;;;;;;;5077225;28;20047;-69
2023/04/06 08:38:04;;;;;;;13.52;6.78;;;;;;;;;;5065716;28;20059;-69
2023/04/06 08:40:32;;;;;;;11.82;6.70;;;;;;;;;;5086588;28;20044;-70
2023/04/06 08:43:01;;;;;;;16.63;8.13;;;;;;;;;;5085835;28;20062;-69
2023/04/06 08:45:29;;;;;;;13.18;7.70;;;;;;;;;;5087583;28;20048;-70
2023/04/06 08:48:01;;;;;;;14.95;7.68;;;;;;;;;;5083706;28;20482;-71
2023/04/06 08:50:29;;;;;;;12.32;7.57;;;;;;;;;;5083511;28;20097;-70
2023/04/06 08:52:58;;;;;;;12.63;7.75;;;;;;;;;;5078295;28;20141;-70
2023/04/06 08:55:26;;;;;;;17.48;8.13;;;;;;;;;;5083758;28;20056;-70
2023/04/06 08:57:54;;;;;;;13.73;7.88;;;;;;;;;;5080774;28;20158;-71
2023/04/06 09:00:22;;;;;;;12.93;8.02;;;;;;;;;;5086339;28;20040;-70
2023/04/06 09:02:50;;;;;;;13.77;7.90;;;;;;;;;;5080744;28;20056;-71
2023/04/06 09:05:18;;;;;;;14.95;7.82;;;;;;;;;;5079477;28;20101;-70
2023/04/06 09:07:46;;;;;;;15.10;7.95;;;;;;;;;;5086677;28;20052;-71
2023/04/06 09:10:15;;;;;;;19.00;10.15;;;;;;;;;;5081970;28;20040;-70
2023/04/06 09:12:42;;;;;;;14.18;8.70;;;;;;;;;;5087749;28;20157;-70
2023/04/06 09:15:19;;;;;;;16.27;9.80;;;;;;;;;;5089315;28;20048;-70
2023/04/06 09:17:46;;;;;;;16.30;9.98;;;;;;;;;;5088197;28;20040;-70
2023/04/06 09:20:14;;;;;;;20.48;9.35;;;;;;;;;;5086203;28;20039;-70
2023/04/06 09:22:42;;;;;;;20.52;10.80;;;;;;;;;;5088524;28;20090;-70
2023/04/06 09:25:11;;;;;;;17.48;9.55;;;;;;;;;;5079486;28;20047;-70
2023/04/06 09:27:40;;;;;;;19.10;10.27;;;;;;;;;;5089758;28;20047;-70
2023/04/06 09:30:09;;;;;;;19.88;10.23;;;;;;;;;;5088932;28;20043;-70
2023/04/06 09:32:46;;;;;;;17.70;10.10;;;;;;;;;;5070993;28;20491;-70
2023/04/06 09:35:14;;;;;;;16.98;10.07;;;;;;;;;;5088775;28;20536;-70
2023/04/06 09:37:41;;;;;;;16.33;10.50;;;;;;;;;;5087491;28;20048;-70
2023/04/06 09:40:09;;;;;;;17.27;10.65;;;;;;;;;;5087134;28;20047;-70
2023/04/06 09:42:36;;;;;;;19.50;10.68;;;;;;;;;;5082305;28;20048;-70
2023/04/06 09:45:06;;;;;;;22.27;10.70;;;;;;;;;;5067366;28;20054;-70
2023/04/06 09:47:33;;;;;;;21.60;10.90;;;;;;;;;;5090339;28;20310;-70
2023/04/06 09:50:01;;;;;;;18.15;11.00;;;;;;;;;;5090503;28;20036;-70
2023/04/06 09:52:32;;;;;;;17.50;10.85;;;;;;;;;;5085945;28;20048;-71
2023/04/06 09:55:01;;;;;;;19.45;11.48;;;;;;;;;;5090733;28;20331;-71
2023/04/06 09:57:31;;;;;;;19.55;11.15;;;;;;;;;;5082133;28;20485;-70
2023/04/06 10:00:03;;;;;;;19.42;11.07;;;;;;;;;;5088170;28;20082;-70
2023/04/06 10:02:37;;;;;;;19.05;10.25;;;;;;;;;;5084741;28;20102;-72
2023/04/06 10:05:07;;;;;;;22.08;11.05;;;;;;;;;;5083230;28;20449;-70
2023/04/06 10:07:34;;;;;;;17.63;10.85;;;;;;;;;;5087430;28;20058;-70
2023/04/06 10:10:03;;;;;;;18.80;11.15;;;;;;;;;;5085782;28;20056;-71
2023/04/06 10:12:31;;;;;;;20.67;11.50;;;;;;;;;;5086844;28;20094;-70
2023/04/06 10:14:59;;;;;;;21.77;12.02;;;;;;;;;;5086333;28;20452;-71
2023/04/06 10:17:26;;;;;;;25.98;11.57;;;;;;;;;;5083597;28;20454;-70
2023/04/06 10:19:56;;;;;;;22.20;12.13;;;;;;;;;;5088841;28;20499;-70
2023/04/06 10:22:28;;;;;;;21.75;12.05;;;;;;;;;;5089242;28;20059;-71
2023/04/06 10:24:55;;;;;;;22.98;12.85;;;;;;;;;;5082641;28;20086;-70
2023/04/06 10:27:29;;;;;;;19.75;12.52;;;;;;;;;;5084544;28;21255;-70
2023/04/06 10:30:02;;;;;;;23.17;12.90;;;;;;;;;;5087327;28;20040;-71
2023/04/06 10:32:33;;;;;;;21.37;12.40;;;;;;;;;;5088151;28;20087;-70
2023/04/06 10:35:08;;;;;;;24.95;12.43;;;;;;;;;;5087836;28;20357;-70
2023/04/06 10:37:48;;;;;;;19.13;12.90;;;;;;;;;;5058040;28;20057;-70
2023/04/06 10:40:23;;;;;;;18.88;12.27;;;;;;;;;;5080384;28;20050;-71
2023/04/06 10:42:50;;;;;;;22.70;12.82;;;;;;;;;;5087498;28;20117;-71
2023/04/06 10:45:21;;;;;;;20.40;12.70;;;;;;;;;;5089101;28;20052;-71
2023/04/06 10:47:48;;;;;;;24.13;13.13;;;;;;;;;;5084916;28;20055;-70
2023/04/06 10:50:17;;;;;;;24.38;13.68;;;;;;;;;;5086369;28;20052;-70
2023/04/06 10:52:48;;;;;;;21.63;13.80;;;;;;;;;;5081402;28;20036;-71
2023/04/06 10:55:16;;;;;;;25.83;14.13;;;;;;;;;;5065250;28;20062;-71
2023/04/06 10:57:43;;;;;;;28.38;14.38;;;;;;;;;;5086617;28;20052;-71
2023/04/06 11:00:13;;;;;;;25.45;14.85;;;;;;;;;;5088774;28;20040;-71
2023/04/06 11:02:41;;;;;;;23.20;14.45;;;;;;;;;;5082630;28;20051;-70
2023/04/06 11:05:09;;;;;;;28.38;14.43;;;;;;;;;;5082642;28;20120;-71
2023/04/06 11:07:37;;;;;;;28.55;15.68;;;;;;;;;;5081848;28;20490;-70
2023/04/06 11:10:05;;;;;;;24.30;14.18;;;;;;;;;;5080048;28;20040;-70
2023/04/06 11:12:32;;;;;;;29.50;15.30;;;;;;;;;;5085307;28;20077;-71
2023/04/06 11:15:04;;;;;;;27.52;15.93;;;;;;;;;;5084784;28;20514;-71
2023/04/06 11:17:31;;;;;;;26.88;15.70;;;;;;;;;;5084427;28;20075;-71
2023/04/06 11:19:59;;;;;;;27.15;15.00;;;;;;;;;;5087322;28;20047;-70
2023/04/06 11:22:26;;;;;;;30.90;15.75;;;;;;;;;;5087915;28;20056;-71
2023/04/06 11:25:06;;;;;;;28.65;15.07;;;;;;;;;;5086465;28;20059;-71
2023/04/06 11:27:33;;;;;;;28.60;15.00;;;;;;;;;;5087716;28;20075;-71
2023/04/06 11:30:01;;;;;;;32.05;15.93;;;;;;;;;;5083581;28;20075;-71
2023/04/06 11:32:28;;;;;;;31.33;16.67;;;;;;;;;;5085961;28;20411;-71
2023/04/06 11:34:55;;;;;;;28.92;15.60;;;;;;;;;;5087023;28;20051;-71
2023/04/06 11:37:23;;;;;;;30.90;15.43;;;;;;;;;;5087701;28;20515;-71
2023/04/06 11:39:50;;;;;;;22.35;14.10;;;;;;;;;;5086212;28;20044;-71
2023/04/06 11:42:26;;;;;;;23.00;14.48;;;;;;;;;;5086695;28;20150;-70
2023/04/06 11:44:53;;;;;;;26.63;14.88;;;;;;;;;;5069553;28;20040;-71
2023/04/06 11:47:22;;;;;;;27.00;14.48;;;;;;;;;;5068034;28;20056;-71
2023/04/06 11:49:50;;;;;;;21.90;13.98;;;;;;;;;;5084154;28;20048;-69
2023/04/06 11:52:18;;;;;;;23.25;13.93;;;;;;;;;;5067353;28;20143;-69
2023/04/06 11:54:45;;;;;;;24.33;13.77;;;;;;;;;;5083337;28;20046;-69
2023/04/06 11:57:13;;;;;;;20.05;13.23;;;;;;;;;;5064141;28;20052;-69
2023/04/06 11:59:41;;;;;;;25.48;13.68;;;;;;;;;;5082933;28;20055;-69
2023/04/06 12:02:09;;;;;;;22.58;13.52;;;;;;;;;;5079664;28;20049;-69
2023/04/06 12:04:36;;;;;;;23.38;12.95;;;;;;;;;;5082790;28;20059;-69
2023/04/06 12:07:04;;;;;;;23.33;13.70;;;;;;;;;;5085576;28;20056;-69
2023/04/06 12:09:31;;;;;;;23.58;13.18;;;;;;;;;;5085240;28;20051;-70
2023/04/06 12:11:59;;;;;;;24.77;14.00;;;;;;;;;;5085580;28;20048;-69
2023/04/06 12:14:26;;;;;;;19.33;12.45;;;;;;;;;;5085374;28;20055;-69
2023/04/06 12:16:55;;;;;;;19.58;12.40;;;;;;;;;;5085329;28;20052;-69
2023/04/06 12:19:25;;;;;;;20.52;12.98;;;;;;;;;;5082660;28;21190;-69
2023/04/06 12:21:53;;;;;;;21.48;12.50;;;;;;;;;;5067577;28;20047;-69
2023/04/06 12:24:20;;;;;;;18.92;11.85;;;;;;;;;;5084847;28;20048;-69
2023/04/06 12:26:47;;;;;;;24.15;12.63;;;;;;;;;;5088577;28;20081;-69
2023/04/06 12:29:15;;;;;;;17.10;11.80;;;;;;;;;;5085221;28;20051;-69
2023/04/06 12:31:44;;;;;;;19.90;11.43;;;;;;;;;;5065044;28;20048;-69
2023/04/06 12:34:12;;;;;;;21.10;10.90;;;;;;;;;;5081289;28;20051;-69
2023/04/06 12:36:40;;;;;;;20.38;11.93;;;;;;;;;;5068472;28;20517;-69
2023/04/06 12:39:08;;;;;;;16.55;11.30;;;;;;;;;;5087640;28;20044;-69
2023/04/06 12:41:35;;;;;;;16.58;10.73;;;;;;;;;;5082667;28;20060;-69
2023/04/06 12:44:03;;;;;;;16.40;9.98;;;;;;;;;;5083730;28;20105;-69
2023/04/06 12:46:30;;;;;;;11.60;7.68;;;;;;;;;;5083670;28;20072;-69
2023/04/06 12:48:58;;;;;;;15.63;6.50;;;;;;;;;;5085827;28;20483;-69
2023/04/06 12:51:29;;;;;;;11.30;6.28;;;;;;;;;;5083392;28;20086;-70
2023/04/06 12:53:56;;;;;;;16.17;9.40;;;;;;;;;;5090216;28;20056;-70
2023/04/06 12:56:23;;;;;;;17.58;9.80;;;;;;;;;;5082725;28;20135;-69
2023/04/06 12:58:52;;;;;;;15.77;9.38;;;;;;;;;;5089085;28;20117;-69
2023/04/06 13:01:19;;;;;;;18.27;10.05;;;;;;;;;;5091399;28;20094;-69
2023/04/06 13:03:47;;;;;;;16.58;9.23;;;;;;;;;;5064608;28;20061;-69
2023/04/06 13:06:15;;;;;;;14.80;9.05;;;;;;;;;;5090954;28;20502;-69
2023/04/06 13:08:43;;;;;;;13.27;8.35;;;;;;;;;;5066087;28;20483;-69
2023/04/06 13:11:11;;;;;;;11.65;7.75;;;;;;;;;;5082599;28;20040;-69
2023/04/06 13:13:39;;;;;;;11.82;6.75;;;;;;;;;;5087994;28;20051;-69
2023/04/06 13:16:07;;;;;;;11.63;6.95;;;;;;;;;;5090254;28;20056;-69
2023/04/06 13:18:36;;;;;;;11.82;6.90;;;;;;;;;;5086190;28;20136;-69
2023/04/06 13:21:04;;;;;;;12.20;7.25;;;;;;;;;;5087483;28;20553;-69
2023/04/06 13:23:31;;;;;;;11.05;6.75;;;;;;;;;;5087491;28;20044;-69
2023/04/06 13:26:01;;;;;;;9.82;6.53;;;;;;;;;;5087911;28;20048;-69
2023/04/06 13:28:28;;;;;;;10.40;6.63;;;;;;;;;;5084748;28;20048;-69
2023/04/06 13:30:56;;;;;;;11.70;6.53;;;;;;;;;;5085885;28;20511;-69
2023/04/06 13:33:24;;;;;;;12.00;7.20;;;;;;;;;;5083366;28;20066;-69
2023/04/06 13:35:51;;;;;;;14.77;8.00;;;;;;;;;;5080499;28;20066;-69
2023/04/06 13:38:19;;;;;;;15.85;8.00;;;;;;;;;;5090250;28;20135;-69
2023/04/06 13:40:46;;;;;;;12.93;8.48;;;;;;;;;;5084889;28;20467;-69
2023/04/06 13:43:15;;;;;;;16.38;9.20;;;;;;;;;;5087166;28;20051;-69
2023/04/06 13:45:43;;;;;;;21.58;10.40;;;;;;;;;;5090277;28;20052;-69
2023/04/06 13:48:10;;;;;;;15.05;9.60;;;;;;;;;;5089294;28;20052;-69
2023/04/06 13:50:37;;;;;;;18.50;11.35;;;;;;;;;;5086953;28;20051;-69
2023/04/06 13:53:04;;;;;;;15.77;10.57;;;;;;;;;;5087631;28;21205;-69
2023/04/06 13:55:32;;;;;;;14.90;9.93;;;;;;;;;;5065941;28;20059;-69
2023/04/06 13:57:59;;;;;;;18.15;10.77;;;;;;;;;;5079252;28;20432;-69
2023/04/06 14:00:27;;;;;;;22.52;10.13;;;;;;;;;;5088101;28;20056;-69
2023/04/06 14:02:55;;;;;;;18.40;10.32;;;;;;;;;;5072379;28;20414;-69
2023/04/06 14:05:23;;;;;;;19.70;10.93;;;;;;;;;;5084329;28;20498;-69
2023/04/06 14:07:50;;;;;;;18.38;10.23;;;;;;;;;;5085526;28;20052;-69
2023/04/06 14:10:20;;;;;;;21.42;13.10;;;;;;;;;;5087445;28;20051;-69
2023/04/06 14:12:48;;;;;;;19.90;11.35;;;;;;;;;;5087116;28;20052;-69
2023/04/06 14:15:15;;;;;;;17.73;11.30;;;;;;;;;;5086111;28;20051;-69
2023/04/06 14:17:44;;;;;;;19.35;11.60;;;;;;;;;;5085312;28;20139;-69
2023/04/06 14:20:13;;;;;;;17.35;11.60;;;;;;;;;;5089427;28;20059;-70
2023/04/06 14:22:42;;;;;;;21.58;12.50;;;;;;;;;;5087607;28;20109;-69
2023/04/06 14:25:10;;;;;;;21.48;11.25;;;;;;;;;;5084454;28;20487;-69
2023/04/06 14:27:38;;;;;;;20.73;11.43;;;;;;;;;;5063743;28;20055;-69
2023/04/06 14:30:05;;;;;;;23.23;12.30;;;;;;;;;;5087359;28;20562;-69
2023/04/06 14:32:33;;;;;;;17.98;11.60;;;;;;;;;;5083944;28;20044;-69
2023/04/06 14:35:01;;;;;;;18.75;11.77;;;;;;;;;;5087225;28;20047;-69